Strona główna
METAR-TAF:

METAR-TAF

Lotnisko :

Port lotniczy Savannakhet

Savannakhét, Laos

Szerokość geograficzna: 16-33-24N, Długość geograficzna: 104-45-34E, wysokość: 155 m

Aktualna obserwacja pogody

Raport powstał 32 minut temu, godzina 03:00 UTC
Wiatr 4 kt od północno-północny wschód
Temperatura 20°C
Wilgotność 53%
Ciśnienie 1019 hPa
Widzialność: 7000 m
Mało chmury na wysokości 2000 ft

METAR: VLSK 100300Z 02004KT 7000 FEW020 20/10 Q1019 NOSIG

czas: 10:32 (03:32 UTC)

Prognoza

Raport powstał 4 godziny i 32 minut temu, godzina 23:00 UTC
Prognoza ważna od 10 godzina 00 UTC do 10 godzina 24 UTC
Wiatr 6 kt od wschód
Widzialność: 8000 m
Mało chmury na wysokości 2000 ft
Mało chmury na wysokości 10000 ft

TAF: VLSK 092300Z 1000/1024 09006KT 8000 FEW020 FEW100

Obserwacja i prognoza pogody dla ponad 4000 lotnisk (raport METAR i TAF).

Dostępne stacje oznaczono żółtymi i czerwonymi punktami na mapie.

Najedź kursorem aby zobaczyć nazwę stacji.

Kliknij aby zobaczyć obserwacje i prognozy pogody.

Aby zmienić mapę: kliknij na zielony przycisk z czarnym krzyżykiem, aby powiększyć; na zielony przycisk z myślnikiem, aby pomniejszyć; na zielone strzałki, aby przejść do map sąsiednich.


METAR-TAF: